world map with CYB marked

CYB - Airport

This information may not be accurate or current and is not valid for navigation or flight planning. No warranty of fitness for any purpose is made or implied.

flag of Cayman Islands

Donate via PayPal

Additional information is available on the NEW Great Circle Mapper

Location
City:  Cayman Brac Island, Cayman Islands
Name:Gerrard-Smith International Airport
ICAO / IATA:MWCB / CYB

Details
Type:Airport (Aerodrome, Airfield)
Latitude:19°41'13"N (19.686981)
Longitude:79°52'58"W (-79.882788)
Datum:WGS 1984
Elevation:8 ft (2 m)
Runways:1
Longest:6000 × 148 ft (1829 × 45 m)

Time
Timezone:UTC+29:08 (DST+31:08)
Local Time:

Weather
METAR:MWCB  041400Z 09004KT 9999 FEW022 27/21 Q1016
TAF:MWCB  032300Z 0318/0418 CNL

Related Locations
Nearby:
Farthest:CCK: 11873 mi / 19107 km
West Island (Pulau Panjang) [Cocos (Keeling) Islands], CC

Find:

   beyond  
but within

Other Information
Maps:
Sources:

  


 


Great Circle Mapper   Great Circle Mapper
Great Circle Mapper FAQ   Great Circle Mapper FAQ
  Karl's Home Page
KLSē   KLSē Home
   GC on Facebook
Airlines of the World   Airlines of the World
Donate via PayPal


Copyright © 2004-2020, Karl L. Swartz. All rights reserved.
All trademarks mentioned herein belong to their respective owners.

Please see credits for attribution and copyright information.

Karl Swartz <karl@kls2.com>
  Powered by FreeBSD
Valid HTML 4.01!
Labeled with ICRA
hCard Microformat
Geo Microformat